Stafford, Texas
Current Conditions -  °F | °C
As of 7:53 PM on Friday 28 Nov 2014 (Local Time) from KSGR Reporting Station
Clear Clear  
Wind Chill: 60°   Ceiling: Unl
Heat Index: 60°   Visibility: 10mi
Dew Point: 55°   Wind: 7mph
Humidity: 83%   Direction: 160°SSE
Pressure: 30.16"   Gusts: NA
Location:  29.61°N, 95.55°W
Report Text: KSGR 290153Z AUTO 16006KT 10SM CLR 16/13 A3016 RMK AO2 SLP215 T01560128
Loading
Personal Weather Stations






























Interactive Weather Map New forecast layout! Learn more

10-Day Weather Forecast

Advertisements
Track Severe Weather on mobile